Time;durP1;ratioP1;P1;durP2;ratioP2;P2;SDS_P1;SDS_P2;PMS_P1;PMS_P2;Temp;Humidity;BMP_temperature;BMP_pressure;BME280_temperature;BME280_humidity;BME280_pressure;Samples;Min_cycle;Max_cycle;Signal;HPM_P1;HPM_P2
2023/01/02 00:01:13;;;;;;;11.77;7.03;;;;;;;;;;5029396;28;20052;-69
2023/01/02 00:03:39;;;;;;;12.20;7.10;;;;;;;;;;5029391;28;20096;-69
2023/01/02 00:06:06;;;;;;;11.02;7.70;;;;;;;;;;5029634;28;20459;-69
2023/01/02 00:08:32;;;;;;;13.40;7.63;;;;;;;;;;5029018;28;20048;-69
2023/01/02 00:10:58;;;;;;;13.15;8.10;;;;;;;;;;5037328;28;20044;-69
2023/01/02 00:13:24;;;;;;;13.25;7.45;;;;;;;;;;5049220;28;20037;-69
2023/01/02 00:15:50;;;;;;;17.08;8.98;;;;;;;;;;5049095;28;20048;-69
2023/01/02 00:18:16;;;;;;;13.90;8.15;;;;;;;;;;5049119;28;20029;-69
2023/01/02 00:20:42;;;;;;;13.70;8.15;;;;;;;;;;5048915;28;20053;-69
2023/01/02 00:23:08;;;;;;;16.55;9.23;;;;;;;;;;5048398;28;20057;-69
2023/01/02 00:25:34;;;;;;;18.38;9.73;;;;;;;;;;5044020;28;20616;-69
2023/01/02 00:28:00;;;;;;;15.80;10.57;;;;;;;;;;5029296;28;20100;-69
2023/01/02 00:30:26;;;;;;;18.75;10.55;;;;;;;;;;5028700;28;20045;-69
2023/01/02 00:32:52;;;;;;;24.88;11.80;;;;;;;;;;5029032;28;20507;-69
2023/01/02 00:35:18;;;;;;;20.00;10.57;;;;;;;;;;5029186;28;20377;-69
2023/01/02 00:37:44;;;;;;;19.10;11.25;;;;;;;;;;5028737;28;20049;-69
2023/01/02 00:40:13;;;;;;;19.67;11.65;;;;;;;;;;5028717;28;20400;-69
2023/01/02 00:42:40;;;;;;;20.65;12.73;;;;;;;;;;5028694;28;20411;-69
2023/01/02 00:45:06;;;;;;;20.52;12.15;;;;;;;;;;5028240;28;20054;-69
2023/01/02 00:47:32;;;;;;;20.67;12.90;;;;;;;;;;5028848;28;20054;-69
2023/01/02 00:49:58;;;;;;;23.50;14.07;;;;;;;;;;5028817;28;20041;-69
2023/01/02 00:52:24;;;;;;;23.35;14.65;;;;;;;;;;5028457;28;20045;-69
2023/01/02 00:54:50;;;;;;;21.85;13.95;;;;;;;;;;5028907;28;20037;-69
2023/01/02 00:57:16;;;;;;;27.83;14.45;;;;;;;;;;5028498;28;20048;-69
2023/01/02 00:59:42;;;;;;;27.13;14.95;;;;;;;;;;5027986;28;20037;-69
2023/01/02 01:02:08;;;;;;;26.83;14.95;;;;;;;;;;5028510;28;20041;-69
2023/01/02 01:04:35;;;;;;;26.10;15.75;;;;;;;;;;5027721;28;20053;-69
2023/01/02 01:07:01;;;;;;;25.60;15.48;;;;;;;;;;5029290;28;20037;-69
2023/01/02 01:09:27;;;;;;;29.05;15.13;;;;;;;;;;5028100;28;20078;-69
2023/01/02 01:11:53;;;;;;;26.80;15.23;;;;;;;;;;5043605;28;20041;-69
2023/01/02 01:14:19;;;;;;;23.48;15.27;;;;;;;;;;5047751;28;20052;-69
2023/01/02 01:16:45;;;;;;;28.52;14.73;;;;;;;;;;5048029;28;20087;-69
2023/01/02 01:19:11;;;;;;;24.80;14.40;;;;;;;;;;5048087;28;20530;-69
2023/01/02 01:21:37;;;;;;;29.85;15.55;;;;;;;;;;5047350;28;20056;-69
2023/01/02 01:24:03;;;;;;;35.47;16.00;;;;;;;;;;5048178;28;20040;-69
2023/01/02 01:26:29;;;;;;;26.67;14.43;;;;;;;;;;5035057;28;20040;-69
2023/01/02 01:28:55;;;;;;;24.05;14.75;;;;;;;;;;5011361;28;20037;-69
2023/01/02 01:31:22;;;;;;;26.98;14.80;;;;;;;;;;5027847;28;20092;-69
2023/01/02 01:33:48;;;;;;;23.15;12.90;;;;;;;;;;5027852;28;20132;-69
2023/01/02 01:36:18;;;;;;;23.65;13.25;;;;;;;;;;5027792;28;20499;-69
2023/01/02 01:38:45;;;;;;;22.02;12.88;;;;;;;;;;5029609;28;20502;-69
2023/01/02 01:41:12;;;;;;;21.15;12.82;;;;;;;;;;5027902;28;20053;-69
2023/01/02 01:43:49;;;;;;;23.30;12.32;;;;;;;;;;5027303;28;20095;-69
2023/01/02 01:46:18;;;;;;;22.08;11.82;;;;;;;;;;5011453;28;20051;-69
2023/01/02 01:48:44;;;;;;;27.85;12.63;;;;;;;;;;5029279;28;20072;-69
2023/01/02 01:51:10;;;;;;;23.42;11.85;;;;;;;;;;5026913;28;20134;-69
2023/01/02 01:53:36;;;;;;;20.52;11.50;;;;;;;;;;5027710;28;20049;-69
2023/01/02 01:56:04;;;;;;;20.63;11.68;;;;;;;;;;5027831;28;20566;-69
2023/01/02 01:58:35;;;;;;;28.52;12.20;;;;;;;;;;5027388;28;20038;-69
2023/01/02 02:01:02;;;;;;;21.38;11.63;;;;;;;;;;5027322;28;20049;-69
2023/01/02 02:03:29;;;;;;;25.33;11.80;;;;;;;;;;5028140;28;20488;-69
2023/01/02 02:05:56;;;;;;;23.90;10.90;;;;;;;;;;5027480;28;20079;-69
2023/01/02 02:08:41;;;;;;;25.40;11.32;;;;;;;;;;5027575;28;20041;-69
2023/01/02 02:11:07;;;;;;;24.15;11.88;;;;;;;;;;5025437;28;20041;-69
2023/01/02 02:13:34;;;;;;;23.48;12.40;;;;;;;;;;5046883;28;20052;-69
2023/01/02 02:16:09;;;;;;;24.88;12.20;;;;;;;;;;5047582;28;20557;-69
2023/01/02 02:18:54;;;;;;;23.73;11.73;;;;;;;;;;5034972;28;20484;-69
2023/01/02 02:21:41;;;;;;;22.23;12.15;;;;;;;;;;5050789;28;20542;-69
2023/01/02 02:24:25;;;;;;;23.85;11.57;;;;;;;;;;5051458;28;20059;-69
2023/01/02 02:26:52;;;;;;;22.25;12.23;;;;;;;;;;5035604;28;20229;-69
2023/01/02 02:29:32;;;;;;;28.75;12.32;;;;;;;;;;5032608;28;20041;-69
2023/01/02 02:32:18;;;;;;;24.02;10.75;;;;;;;;;;5030984;28;20045;-69
2023/01/02 02:34:44;;;;;;;25.63;11.57;;;;;;;;;;5017585;28;20507;-69
2023/01/02 02:37:16;;;;;;;21.55;11.45;;;;;;;;;;5014422;28;20068;-69
2023/01/02 02:40:01;;;;;;;27.17;11.18;;;;;;;;;;5031279;28;20353;-69
2023/01/02 02:42:30;;;;;;;25.65;12.50;;;;;;;;;;5030304;28;20052;-69
2023/01/02 02:45:10;;;;;;;21.75;10.63;;;;;;;;;;5031286;28;20084;-69
2023/01/02 02:47:42;;;;;;;23.10;10.88;;;;;;;;;;5030895;28;20099;-69
2023/01/02 02:50:10;;;;;;;34.67;11.55;;;;;;;;;;5030679;28;20393;-69
2023/01/02 02:52:55;;;;;;;21.33;11.45;;;;;;;;;;5030963;28;20571;-69
2023/01/02 02:55:26;;;;;;;20.52;10.45;;;;;;;;;;5014734;28;20056;-69
2023/01/02 02:57:52;;;;;;;30.93;11.57;;;;;;;;;;5030474;28;20052;-69
2023/01/02 03:00:19;;;;;;;21.40;9.88;;;;;;;;;;5030897;28;20682;-69
2023/01/02 03:02:46;;;;;;;26.77;11.60;;;;;;;;;;5030576;28;20091;-69
2023/01/02 03:05:15;;;;;;;21.23;10.35;;;;;;;;;;5030356;28;20045;-69
2023/01/02 03:07:41;;;;;;;20.33;9.90;;;;;;;;;;5032090;28;20491;-69
2023/01/02 03:10:13;;;;;;;18.02;10.30;;;;;;;;;;5031670;28;20041;-69
2023/01/02 03:12:53;;;;;;;17.02;10.20;;;;;;;;;;5049958;28;20049;-69
2023/01/02 03:15:28;;;;;;;24.58;10.70;;;;;;;;;;5050661;28;20048;-69
2023/01/02 03:17:58;;;;;;;24.15;10.57;;;;;;;;;;5050067;28;20402;-69
2023/01/02 03:20:26;;;;;;;24.00;10.38;;;;;;;;;;5049759;28;20138;-69
2023/01/02 03:22:54;;;;;;;24.52;10.90;;;;;;;;;;5049992;28;20724;-69
2023/01/02 03:25:21;;;;;;;21.10;10.75;;;;;;;;;;5047088;28;20045;-69
2023/01/02 03:27:49;;;;;;;20.77;10.63;;;;;;;;;;5029588;28;20040;-69
2023/01/02 03:30:19;;;;;;;24.23;10.52;;;;;;;;;;5031867;28;20034;-69
2023/01/02 03:33:02;;;;;;;20.95;10.93;;;;;;;;;;5031384;28;20565;-69
2023/01/02 03:35:31;;;;;;;23.23;9.82;;;;;;;;;;5013565;28;20111;-69
2023/01/02 03:37:58;;;;;;;23.38;10.70;;;;;;;;;;5030081;28;20041;-69
2023/01/02 03:40:26;;;;;;;19.30;9.93;;;;;;;;;;5029907;28;20049;-69
2023/01/02 03:42:59;;;;;;;20.10;10.27;;;;;;;;;;5029622;28;20077;-69
2023/01/02 03:45:30;;;;;;;30.17;9.82;;;;;;;;;;5029858;28;20069;-69
2023/01/02 03:48:09;;;;;;;24.50;10.40;;;;;;;;;;5029991;28;20037;-69
2023/01/02 03:50:40;;;;;;;20.50;10.43;;;;;;;;;;5030527;28;20037;-69
2023/01/02 03:53:06;;;;;;;21.38;11.02;;;;;;;;;;5029634;28;20084;-69
2023/01/02 03:55:34;;;;;;;15.70;9.55;;;;;;;;;;5029904;28;20045;-69
2023/01/02 03:58:04;;;;;;;23.90;10.75;;;;;;;;;;5029284;28;20033;-69
2023/01/02 04:00:35;;;;;;;19.85;10.75;;;;;;;;;;5029857;28;20442;-69
2023/01/02 04:03:07;;;;;;;23.05;10.60;;;;;;;;;;5029303;28;20077;-69
2023/01/02 04:05:40;;;;;;;21.27;11.50;;;;;;;;;;5029136;28;20045;-69
2023/01/02 04:08:08;;;;;;;22.17;11.07;;;;;;;;;;5029983;28;20108;-69
2023/01/02 04:10:35;;;;;;;23.67;11.77;;;;;;;;;;5035071;28;20539;-69
2023/01/02 04:13:03;;;;;;;22.75;11.25;;;;;;;;;;5048626;28;20037;-69
2023/01/02 04:15:32;;;;;;;24.63;11.38;;;;;;;;;;5049132;28;20467;-69
2023/01/02 04:18:07;;;;;;;24.52;10.88;;;;;;;;;;5049309;28;20059;-69
2023/01/02 04:20:36;;;;;;;24.65;11.90;;;;;;;;;;5048761;28;20049;-69
2023/01/02 04:23:05;;;;;;;23.60;11.85;;;;;;;;;;5032403;28;20041;-69
2023/01/02 04:25:35;;;;;;;20.70;11.45;;;;;;;;;;5044596;28;20109;-69
2023/01/02 04:28:04;;;;;;;23.77;11.05;;;;;;;;;;5030162;28;20041;-69
2023/01/02 04:30:31;;;;;;;22.67;11.23;;;;;;;;;;5029246;28;20041;-69
2023/01/02 04:32:59;;;;;;;26.67;11.30;;;;;;;;;;5030314;28;20579;-69
2023/01/02 04:35:25;;;;;;;23.33;10.45;;;;;;;;;;5028596;28;20033;-69
2023/01/02 04:37:51;;;;;;;25.45;11.32;;;;;;;;;;5030623;28;20072;-69
2023/01/02 04:40:37;;;;;;;21.63;10.93;;;;;;;;;;5028624;28;20041;-69
2023/01/02 04:43:19;;;;;;;19.73;10.88;;;;;;;;;;5028047;28;20048;-69
2023/01/02 04:45:45;;;;;;;;;;;;;;;;;;5029317;28;20037;-69
2023/01/02 04:48:11;;;;;;;19.02;10.60;;;;;;;;;;5028675;28;19927;-69
2023/01/02 04:50:37;;;;;;;19.25;9.82;;;;;;;;;;5030027;28;20556;-69
2023/01/02 04:53:03;;;;;;;19.45;9.85;;;;;;;;;;5028700;28;20079;-69
2023/01/02 04:55:29;;;;;;;21.15;10.70;;;;;;;;;;5028780;28;20052;-69
2023/01/02 04:57:56;;;;;;;21.80;10.25;;;;;;;;;;5028698;28;20439;-69
2023/01/02 05:00:22;;;;;;;21.25;10.00;;;;;;;;;;5029970;28;20404;-69
2023/01/02 05:02:48;;;;;;;23.95;9.63;;;;;;;;;;5028568;28;20068;-69
2023/01/02 05:05:14;;;;;;;22.00;10.23;;;;;;;;;;5028286;28;20052;-69
2023/01/02 05:07:40;;;;;;;24.27;9.65;;;;;;;;;;5011894;28;20090;-69
2023/01/02 05:10:07;;;;;;;17.20;10.13;;;;;;;;;;5029154;28;20041;-69
2023/01/02 05:12:34;;;;;;;21.63;10.43;;;;;;;;;;5048307;28;20260;-69
2023/01/02 05:15:00;;;;;;;17.42;9.77;;;;;;;;;;5048335;28;20044;-69
2023/01/02 05:17:26;;;;;;;19.27;10.18;;;;;;;;;;5031382;28;20352;-69
2023/01/02 05:19:51;;;;;;;22.25;10.50;;;;;;;;;;5047646;28;20049;-69
2023/01/02 05:25:02;;;;;;;22.00;9.43;;;;;;;;;;5049204;28;20044;-69
2023/01/02 05:27:28;;;;;;;19.90;9.35;;;;;;;;;;5028193;28;20049;-69
2023/01/02 05:29:54;;;;;;;22.85;10.50;;;;;;;;;;5028153;28;20086;-69
2023/01/02 05:32:20;;;;;;;21.20;10.30;;;;;;;;;;5029393;28;20044;-69
2023/01/02 05:34:46;;;;;;;22.10;10.43;;;;;;;;;;5029037;28;20053;-69
2023/01/02 05:37:12;;;;;;;20.42;9.70;;;;;;;;;;5013078;28;20037;-69
2023/01/02 05:39:38;;;;;;;20.77;9.88;;;;;;;;;;5013295;28;20049;-69
2023/01/02 05:42:04;;;;;;;20.85;10.27;;;;;;;;;;5028788;28;20064;-69
2023/01/02 05:44:30;;;;;;;17.80;10.07;;;;;;;;;;5029413;28;20045;-69
2023/01/02 05:46:56;;;;;;;20.08;10.50;;;;;;;;;;5029350;28;20067;-69
2023/01/02 05:49:22;;;;;;;22.30;9.77;;;;;;;;;;5029095;28;20045;-68
2023/01/02 05:51:48;;;;;;;22.98;10.23;;;;;;;;;;5029304;28;20048;-68
2023/01/02 05:54:14;;;;;;;23.35;9.48;;;;;;;;;;5029216;28;20487;-68
2023/01/02 05:56:40;;;;;;;18.63;9.80;;;;;;;;;;5029142;28;20056;-69
2023/01/02 05:59:07;;;;;;;18.52;10.32;;;;;;;;;;5028615;28;20065;-69
2023/01/02 06:01:33;;;;;;;20.02;9.52;;;;;;;;;;5029401;28;20107;-69
2023/01/02 06:04:00;;;;;;;19.15;9.18;;;;;;;;;;5011699;28;20555;-69
2023/01/02 06:06:29;;;;;;;23.38;9.25;;;;;;;;;;5030859;28;20069;-69
2023/01/02 06:08:54;;;;;;;15.85;9.68;;;;;;;;;;5030259;28;20083;-68
2023/01/02 06:11:21;;;;;;;20.17;9.77;;;;;;;;;;5037604;28;20045;-68
2023/01/02 06:13:47;;;;;;;18.42;9.25;;;;;;;;;;5046651;28;20124;-68
2023/01/02 06:16:13;;;;;;;17.92;9.38;;;;;;;;;;5047176;28;20120;-69
2023/01/02 06:18:40;;;;;;;17.65;9.35;;;;;;;;;;5046548;28;20478;-69
2023/01/02 06:21:07;;;;;;;22.90;10.38;;;;;;;;;;5047047;28;20132;-69
2023/01/02 06:23:33;;;;;;;21.67;9.02;;;;;;;;;;5048292;28;20068;-69
2023/01/02 06:26:18;;;;;;;20.58;9.43;;;;;;;;;;5040005;28;20476;-69
2023/01/02 06:28:44;;;;;;;19.65;9.43;;;;;;;;;;5028465;28;20056;-69
2023/01/02 06:31:15;;;;;;;21.55;9.13;;;;;;;;;;5027345;28;20476;-69
2023/01/02 06:33:41;;;;;;;19.40;10.48;;;;;;;;;;5026486;28;20069;-69
2023/01/02 06:36:11;;;;;;;19.60;10.02;;;;;;;;;;5027326;28;20510;-69
2023/01/02 06:38:37;;;;;;;17.65;9.70;;;;;;;;;;5027009;28;20056;-69
2023/01/02 06:41:04;;;;;;;19.95;9.63;;;;;;;;;;5028312;28;20045;-69
2023/01/02 06:43:31;;;;;;;18.17;10.10;;;;;;;;;;5028485;28;20122;-69
2023/01/02 06:45:58;;;;;;;22.23;10.55;;;;;;;;;;5028551;28;20394;-69
2023/01/02 06:48:24;;;;;;;19.95;10.48;;;;;;;;;;5028620;28;20049;-69
2023/01/02 06:50:50;;;;;;;20.27;9.88;;;;;;;;;;5028800;28;20053;-69
2023/01/02 06:53:16;;;;;;;18.27;9.07;;;;;;;;;;5028625;28;20045;-69
2023/01/02 06:55:52;;;;;;;19.85;10.77;;;;;;;;;;5027969;28;20037;-69
2023/01/02 06:58:19;;;;;;;16.13;9.40;;;;;;;;;;5028765;28;20045;-69
2023/01/02 07:00:45;;;;;;;18.23;10.18;;;;;;;;;;5028274;28;20034;-69
2023/01/02 07:03:10;;;;;;;15.05;8.85;;;;;;;;;;5028656;28;20041;-69
2023/01/02 07:05:37;;;;;;;11.65;7.53;;;;;;;;;;5030689;28;20045;-69
2023/01/02 07:08:03;;;;;;;8.70;6.82;;;;;;;;;;5030758;28;20048;-69
2023/01/02 07:10:28;;;;;;;9.40;6.32;;;;;;;;;;5033575;28;20130;-69
2023/01/02 07:12:54;;;;;;;8.60;5.20;;;;;;;;;;5050552;28;20068;-69
2023/01/02 07:15:20;;;;;;;6.07;4.30;;;;;;;;;;5050038;28;20052;-69
2023/01/02 07:17:46;;;;;;;5.05;3.40;;;;;;;;;;5049781;28;20051;-68
2023/01/02 07:20:12;;;;;;;2.22;2.03;;;;;;;;;;5051345;28;20057;-68
2023/01/02 07:22:38;;;;;;;3.17;1.75;;;;;;;;;;5050198;28;20134;-68
2023/01/02 07:25:05;;;;;;;3.35;1.92;;;;;;;;;;5049061;28;20675;-68
2023/01/02 07:27:31;;;;;;;3.40;2.60;;;;;;;;;;5031623;28;20045;-68
2023/01/02 07:29:57;;;;;;;2.83;1.73;;;;;;;;;;5030068;28;20463;-68
2023/01/02 07:32:23;;;;;;;2.13;1.73;;;;;;;;;;5013427;28;20045;-68
2023/01/02 07:34:50;;;;;;;4.18;2.50;;;;;;;;;;5030100;28;20049;-68
2023/01/02 07:37:16;;;;;;;3.90;3.17;;;;;;;;;;5030355;28;20076;-68
2023/01/02 07:39:42;;;;;;;4.20;3.72;;;;;;;;;;5031060;28;20523;-68
2023/01/02 07:42:08;;;;;;;5.57;4.93;;;;;;;;;;5029740;28;20049;-68
2023/01/02 07:44:34;;;;;;;6.25;4.88;;;;;;;;;;5030028;28;20088;-68
2023/01/02 07:47:00;;;;;;;8.35;6.18;;;;;;;;;;5036082;28;20124;-69
2023/01/02 07:49:26;;;;;;;9.23;6.35;;;;;;;;;;5018050;28;20148;-69
2023/01/02 07:51:52;;;;;;;10.52;6.93;;;;;;;;;;5018577;28;20045;-68
2023/01/02 07:54:18;;;;;;;10.02;6.60;;;;;;;;;;5031321;28;20058;-68
2023/01/02 07:56:44;;;;;;;9.85;6.50;;;;;;;;;;5030887;28;20049;-68
2023/01/02 07:59:10;;;;;;;8.90;6.00;;;;;;;;;;5029002;28;20037;-68
2023/01/02 08:01:36;;;;;;;11.13;6.30;;;;;;;;;;5029086;28;20080;-68
2023/01/02 08:04:02;;;;;;;8.00;5.32;;;;;;;;;;5011895;28;20069;-68
2023/01/02 08:06:28;;;;;;;3.92;3.03;;;;;;;;;;5022594;28;20110;-68
2023/01/02 08:08:54;;;;;;;5.18;2.50;;;;;;;;;;5034338;28;20427;-68
2023/01/02 08:11:21;;;;;;;3.05;1.63;;;;;;;;;;5038974;28;20048;-69
2023/01/02 08:13:47;;;;;;;2.83;1.33;;;;;;;;;;5026420;28;20470;-69
2023/01/02 08:16:14;;;;;;;3.70;1.77;;;;;;;;;;5029083;28;20124;-68
2023/01/02 08:18:40;;;;;;;3.45;1.92;;;;;;;;;;5010763;28;20060;-68
2023/01/02 08:21:06;;;;;;;2.70;1.60;;;;;;;;;;5028206;28;20091;-68
2023/01/02 08:23:32;;;;;;;2.95;1.40;;;;;;;;;;5029581;28;20033;-68
2023/01/02 08:25:59;;;;;;;2.90;1.45;;;;;;;;;;5028308;28;20095;-68
2023/01/02 08:28:26;;;;;;;2.15;1.45;;;;;;;;;;5010410;28;20527;-68
2023/01/02 08:30:52;;;;;;;3.05;1.90;;;;;;;;;;5017753;28;20037;-68
2023/01/02 08:33:18;;;;;;;4.25;2.10;;;;;;;;;;5029464;28;20355;-67
2023/01/02 08:35:44;;;;;;;3.88;1.60;;;;;;;;;;5029566;28;20396;-68
2023/01/02 08:38:10;;;;;;;4.82;2.80;;;;;;;;;;5030453;28;20041;-68
2023/01/02 08:40:36;;;;;;;1.73;1.10;;;;;;;;;;5030523;28;20116;-68
2023/01/02 08:43:02;;;;;;;4.20;2.05;;;;;;;;;;5030050;28;20460;-68
2023/01/02 08:45:28;;;;;;;4.85;2.67;;;;;;;;;;5030353;28;20045;-68
2023/01/02 08:47:54;;;;;;;2.75;1.00;;;;;;;;;;5028192;28;20057;-69
2023/01/02 08:50:20;;;;;;;4.53;2.17;;;;;;;;;;5028881;28;20448;-63
2023/01/02 08:52:47;;;;;;;2.15;1.25;;;;;;;;;;5025668;28;20403;-62
2023/01/02 08:55:13;;;;;;;2.03;1.33;;;;;;;;;;5029422;28;20037;-63
2023/01/02 08:57:39;;;;;;;2.83;1.52;;;;;;;;;;5025699;28;20084;-63
2023/01/02 09:00:05;;;;;;;3.22;1.40;;;;;;;;;;5029954;28;20124;-63
2023/01/02 09:02:31;;;;;;;4.40;1.38;;;;;;;;;;5027765;28;20042;-62
2023/01/02 09:04:58;;;;;;;3.45;1.67;;;;;;;;;;5003202;28;20052;-63
2023/01/02 09:07:25;;;;;;;4.55;1.65;;;;;;;;;;5029138;28;20074;-63
2023/01/02 09:09:51;;;;;;;2.78;1.67;;;;;;;;;;5023942;28;20046;-63
2023/01/02 09:12:17;;;;;;;3.28;1.77;;;;;;;;;;5038332;28;20088;-63
2023/01/02 09:14:43;;;;;;;4.63;2.00;;;;;;;;;;5029331;28;20046;-63
2023/01/02 09:17:09;;;;;;;2.60;1.73;;;;;;;;;;5027394;28;20048;-63
2023/01/02 09:19:35;;;;;;;3.72;2.20;;;;;;;;;;5029598;28;20081;-63
2023/01/02 09:22:01;;;;;;;4.85;2.17;;;;;;;;;;5028964;28;20164;-63
2023/01/02 09:24:27;;;;;;;4.35;2.38;;;;;;;;;;5030004;28;20047;-63
2023/01/02 09:26:53;;;;;;;3.70;1.90;;;;;;;;;;5028706;28;20051;-63
2023/01/02 09:29:20;;;;;;;4.30;2.05;;;;;;;;;;5028001;28;20103;-63
2023/01/02 09:31:46;;;;;;;3.45;2.38;;;;;;;;;;5026607;28;20077;-63
2023/01/02 09:34:12;;;;;;;4.00;2.63;;;;;;;;;;5023422;28;20047;-66
2023/01/02 09:36:38;;;;;;;3.53;2.42;;;;;;;;;;5029881;28;20072;-65
2023/01/02 09:39:05;;;;;;;4.40;2.05;;;;;;;;;;5014721;28;20072;-65
2023/01/02 09:41:33;;;;;;;4.03;2.10;;;;;;;;;;5015022;28;20095;-66
2023/01/02 09:44:11;;;;;;;2.90;1.88;;;;;;;;;;5026669;28;20108;-66
2023/01/02 09:46:37;;;;;;;6.95;2.50;;;;;;;;;;5024694;28;20041;-63
2023/01/02 09:49:03;;;;;;;2.78;2.17;;;;;;;;;;5026338;28;20079;-66
2023/01/02 09:51:30;;;;;;;2.92;2.20;;;;;;;;;;5027951;28;20045;-66
2023/01/02 09:53:56;;;;;;;3.33;2.10;;;;;;;;;;5027648;28;20124;-66
2023/01/02 09:56:26;;;;;;;4.28;2.00;;;;;;;;;;5026011;28;20057;-66
2023/01/02 09:58:52;;;;;;;3.50;2.10;;;;;;;;;;5024914;28;20041;-65
2023/01/02 10:01:27;;;;;;;3.30;2.15;;;;;;;;;;5028840;28;20620;-65
2023/01/02 10:04:05;;;;;;;5.05;1.90;;;;;;;;;;5022179;28;20132;-63
2023/01/02 10:06:39;;;;;;;5.47;1.80;;;;;;;;;;5022644;28;20044;-65
2023/01/02 10:09:11;;;;;;;4.85;1.90;;;;;;;;;;5028883;28;20047;-66
2023/01/02 10:11:37;;;;;;;;;;;;;;;;;;5019840;28;20041;-66
2023/01/02 10:14:11;;;;;;;5.28;2.00;;;;;;;;;;5023020;28;20544;-66
2023/01/02 10:16:39;;;;;;;3.05;1.98;;;;;;;;;;5019664;28;20096;-65
2023/01/02 10:19:09;;;;;;;5.28;2.15;;;;;;;;;;5017385;28;20053;-65
2023/01/02 10:21:36;;;;;;;3.67;2.40;;;;;;;;;;5025341;28;20041;-66
2023/01/02 10:24:06;;;;;;;4.22;1.73;;;;;;;;;;5022385;28;20037;-66
2023/01/02 10:26:35;;;;;;;4.07;1.75;;;;;;;;;;5025269;28;20391;-65
2023/01/02 10:29:20;;;;;;;4.85;2.20;;;;;;;;;;5025077;28;20053;-67
2023/01/02 10:31:49;;;;;;;3.88;1.90;;;;;;;;;;5026829;28;20053;-65
2023/01/02 10:34:20;;;;;;;4.97;2.22;;;;;;;;;;5029177;28;20042;-65
2023/01/02 10:36:47;;;;;;;6.13;1.90;;;;;;;;;;5027563;28;20508;-66
2023/01/02 10:39:15;;;;;;;4.10;2.05;;;;;;;;;;5030017;28;20041;-65
2023/01/02 10:41:42;;;;;;;5.03;2.22;;;;;;;;;;5031271;28;20549;-65
2023/01/02 10:44:12;;;;;;;4.25;2.10;;;;;;;;;;5030606;28;20115;-66
2023/01/02 10:46:39;;;;;;;5.15;2.30;;;;;;;;;;5032243;28;20076;-66
2023/01/02 10:49:07;;;;;;;7.18;2.70;;;;;;;;;;5030684;28;20041;-66
2023/01/02 10:51:35;;;;;;;6.13;2.60;;;;;;;;;;5023113;28;20053;-66
2023/01/02 10:54:02;;;;;;;8.38;2.80;;;;;;;;;;5027877;28;20091;-66
2023/01/02 10:56:30;;;;;;;4.60;2.58;;;;;;;;;;5026884;28;20484;-66
2023/01/02 10:58:56;;;;;;;3.95;2.35;;;;;;;;;;5021025;28;20038;-66
2023/01/02 11:01:23;;;;;;;6.05;2.95;;;;;;;;;;5000595;28;20073;-66
2023/01/02 11:04:11;;;;;;;5.50;2.83;;;;;;;;;;5026191;28;20988;-67
2023/01/02 11:06:51;;;;;;;8.88;3.35;;;;;;;;;;5028756;28;20033;-66
2023/01/02 11:09:22;;;;;;;8.98;3.42;;;;;;;;;;5029331;28;20037;-66
2023/01/02 11:11:54;;;;;;;6.78;2.45;;;;;;;;;;5006266;28;20049;-65
2023/01/02 11:14:26;;;;;;;6.50;2.85;;;;;;;;;;5028765;28;20041;-66
2023/01/02 11:16:52;;;;;;;4.60;2.50;;;;;;;;;;5028960;28;20464;-65
2023/01/02 11:19:20;;;;;;;9.27;4.05;;;;;;;;;;5029128;28;20049;-66
2023/01/02 11:21:47;;;;;;;6.30;2.85;;;;;;;;;;5029000;28;20399;-66
2023/01/02 11:24:18;;;;;;;5.88;2.50;;;;;;;;;;5006009;28;20381;-68
2023/01/02 11:26:45;;;;;;;5.22;2.80;;;;;;;;;;5022194;28;20521;-67
2023/01/02 11:29:16;;;;;;;10.98;2.95;;;;;;;;;;5024097;28;20076;-67
2023/01/02 11:31:47;;;;;;;6.45;2.45;;;;;;;;;;5025861;28;20041;-67
2023/01/02 11:34:22;;;;;;;3.90;2.25;;;;;;;;;;5009192;28;20042;-67
2023/01/02 11:37:05;;;;;;;6.18;2.83;;;;;;;;;;5027904;28;20037;-67
2023/01/02 11:39:32;;;;;;;4.30;1.83;;;;;;;;;;5029749;28;20041;-67
2023/01/02 11:45:11;;;;;;;6.43;2.22;;;;;;;;;;5030673;28;20045;-68
2023/01/02 11:47:46;;;;;;;4.18;1.80;;;;;;;;;;5028178;28;20775;-68
2023/01/02 11:50:20;;;;;;;6.75;2.05;;;;;;;;;;5008855;28;20569;-68
2023/01/02 11:52:50;;;;;;;4.18;2.05;;;;;;;;;;5012627;28;20037;-67
2023/01/02 11:55:25;;;;;;;6.20;1.70;;;;;;;;;;5029081;28;20060;-67
2023/01/02 11:57:56;;;;;;;6.18;1.88;;;;;;;;;;5029250;28;20084;-67
2023/01/02 12:00:24;;;;;;;9.07;1.92;;;;;;;;;;5030485;28;20046;-67
2023/01/02 12:02:52;;;;;;;4.85;1.85;;;;;;;;;;5027783;28;20071;-67
2023/01/02 12:05:23;;;;;;;9.05;1.48;;;;;;;;;;5027358;28;20139;-68
2023/01/02 12:07:54;;;;;;;5.63;1.70;;;;;;;;;;5025326;28;20064;-68
2023/01/02 12:10:20;;;;;;;9.32;1.85;;;;;;;;;;5028906;28;20069;-68
2023/01/02 12:13:01;;;;;;;7.85;2.05;;;;;;;;;;5027868;28;20443;-67
2023/01/02 12:15:37;;;;;;;7.82;2.30;;;;;;;;;;5020400;28;20040;-68
2023/01/02 12:18:22;;;;;;;8.00;2.00;;;;;;;;;;5028489;28;20048;-68
2023/01/02 12:20:59;;;;;;;10.27;2.10;;;;;;;;;;5025424;28;20051;-68
2023/01/02 12:23:44;;;;;;;6.43;2.20;;;;;;;;;;5027164;28;20040;-67
2023/01/02 12:26:12;;;;;;;8.65;2.15;;;;;;;;;;5008607;28;20495;-67
2023/01/02 12:28:38;;;;;;;5.43;1.70;;;;;;;;;;5027791;28;20091;-68
2023/01/02 12:31:04;;;;;;;8.15;1.85;;;;;;;;;;5024358;28;20624;-68
2023/01/02 12:33:42;;;;;;;10.20;1.98;;;;;;;;;;5026626;28;20391;-68
2023/01/02 12:36:32;;;;;;;10.02;1.98;;;;;;;;;;5029390;28;20046;-68
2023/01/02 12:39:01;;;;;;;9.07;1.75;;;;;;;;;;5025527;28;20905;-68
2023/01/02 12:41:42;;;;;;;9.65;2.10;;;;;;;;;;5010896;28;20033;-68
2023/01/02 12:44:27;;;;;;;5.07;1.52;;;;;;;;;;5022991;28;20045;-68
2023/01/02 12:47:11;;;;;;;14.00;1.83;;;;;;;;;;5028171;28;20041;-69
2023/01/02 12:49:56;;;;;;;8.13;1.70;;;;;;;;;;5026420;28;20179;-68
2023/01/02 12:52:42;;;;;;;8.32;1.50;;;;;;;;;;5016367;28;20438;-68
2023/01/02 12:55:22;;;;;;;10.10;2.00;;;;;;;;;;4994058;28;20103;-68
2023/01/02 12:58:00;;;;;;;10.18;1.77;;;;;;;;;;5027248;28;20049;-67
2023/01/02 13:00:32;;;;;;;10.50;2.47;;;;;;;;;;5027926;28;20033;-67
2023/01/02 13:03:07;;;;;;;8.25;2.00;;;;;;;;;;5028112;28;20079;-67
2023/01/02 13:05:38;;;;;;;6.38;1.77;;;;;;;;;;5027960;28;20091;-66
2023/01/02 13:08:07;;;;;;;9.50;2.00;;;;;;;;;;5025097;28;20294;-66
2023/01/02 13:10:33;;;;;;;11.60;1.88;;;;;;;;;;5026285;28;20029;-66
2023/01/02 13:13:00;;;;;;;10.65;2.15;;;;;;;;;;5024889;28;20088;-65
2023/01/02 13:15:34;;;;;;;10.43;1.98;;;;;;;;;;5027769;28;20033;-65
2023/01/02 13:18:06;;;;;;;11.55;2.20;;;;;;;;;;5029641;28;20445;-65
2023/01/02 13:20:52;;;;;;;7.65;2.08;;;;;;;;;;5028740;28;20415;-66
2023/01/02 13:23:45;;;;;;;9.95;2.30;;;;;;;;;;5023088;28;20049;-66
2023/01/02 13:26:16;;;;;;;12.68;2.15;;;;;;;;;;5024218;28;20181;-66
2023/01/02 13:29:05;;;;;;;13.68;1.90;;;;;;;;;;5024687;28;20045;-63
2023/01/02 13:31:33;;;;;;;13.25;2.00;;;;;;;;;;5017238;28;20084;-64
2023/01/02 13:34:05;;;;;;;16.67;2.95;;;;;;;;;;5027384;28;20038;-64
2023/01/02 13:36:34;;;;;;;17.73;2.60;;;;;;;;;;5029498;28;20030;-63
2023/01/02 13:39:16;;;;;;;14.73;2.50;;;;;;;;;;5033790;28;20041;-64
2023/01/02 13:44:34;;;;;;;;;;;;;;;;;;5026052;28;20131;-64
2023/01/02 13:47:14;;;;;;;13.57;2.40;;;;;;;;;;5023974;28;20387;-65
2023/01/02 13:49:40;;;;;;;17.05;2.92;;;;;;;;;;5009952;28;20046;-64
2023/01/02 13:52:13;;;;;;;14.43;3.13;;;;;;;;;;5027389;28;20045;-65
2023/01/02 13:54:39;;;;;;;10.82;2.33;;;;;;;;;;5029632;28;20045;-66
2023/01/02 13:57:24;;;;;;;16.00;2.38;;;;;;;;;;5029027;28;20037;-65
2023/01/02 13:59:56;;;;;;;6.82;2.00;;;;;;;;;;5026642;28;20034;-65
2023/01/02 14:02:22;;;;;;;11.93;2.25;;;;;;;;;;5028676;28;20047;-65
2023/01/02 14:04:48;;;;;;;12.02;2.20;;;;;;;;;;5026101;28;20045;-65
2023/01/02 14:07:28;;;;;;;14.60;3.42;;;;;;;;;;5023274;28;20073;-65
2023/01/02 14:10:00;;;;;;;11.52;2.72;;;;;;;;;;5028102;28;20476;-65
2023/01/02 14:12:26;;;;;;;18.70;2.80;;;;;;;;;;5027277;28;20049;-65
2023/01/02 14:14:52;;;;;;;12.18;2.63;;;;;;;;;;5021853;28;20042;-65
2023/01/02 14:17:31;;;;;;;18.50;3.95;;;;;;;;;;5028397;28;20044;-65
2023/01/02 14:20:16;;;;;;;12.32;3.17;;;;;;;;;;5026327;28;20183;-64
2023/01/02 14:22:45;;;;;;;8.60;2.42;;;;;;;;;;5023930;28;20476;-65
2023/01/02 14:25:11;;;;;;;12.57;2.83;;;;;;;;;;5027230;28;20179;-64
2023/01/02 14:27:37;;;;;;;10.95;3.47;;;;;;;;;;5019669;28;20041;-66
2023/01/02 14:30:06;;;;;;;15.80;3.50;;;;;;;;;;5027820;28;20531;-64
2023/01/02 14:32:32;;;;;;;19.17;3.13;;;;;;;;;;5015950;28;20042;-64
2023/01/02 14:34:58;;;;;;;14.43;2.92;;;;;;;;;;5017653;28;20396;-64
2023/01/02 14:37:31;;;;;;;10.75;2.33;;;;;;;;;;5025203;28;20559;-65
2023/01/02 14:40:09;;;;;;;14.85;2.60;;;;;;;;;;5025375;28;20034;-64
2023/01/02 14:45:41;;;;;;;12.85;2.60;;;;;;;;;;4948307;28;20056;-64
2023/01/02 14:48:08;;;;;;;13.35;2.58;;;;;;;;;;5009997;28;20129;-64
2023/01/02 14:50:35;;;;;;;12.02;2.42;;;;;;;;;;5020423;28;20449;-63
2023/01/02 14:53:01;;;;;;;9.38;2.03;;;;;;;;;;5025096;28;20038;-64
2023/01/02 14:55:30;;;;;;;15.20;3.20;;;;;;;;;;5031220;28;20045;-64